sensor_id;sensor_type;location;lat;lon;timestamp;temperature;humidity
52965;DHT22;42923;53.220;6.528;2023-09-19T00:00:20;13.40;99.90
52965;DHT22;42923;53.220;6.528;2023-09-19T00:02:53;13.40;99.90
52965;DHT22;42923;53.220;6.528;2023-09-19T00:05:19;13.40;99.90
52965;DHT22;42923;53.220;6.528;2023-09-19T00:07:50;13.40;99.90
52965;DHT22;42923;53.220;6.528;2023-09-19T00:10:17;13.40;99.90
52965;DHT22;42923;53.220;6.528;2023-09-19T00:12:45;13.40;99.90
52965;DHT22;42923;53.220;6.528;2023-09-19T00:15:11;13.40;99.90
52965;DHT22;42923;53.220;6.528;2023-09-19T00:17:37;13.40;99.90
52965;DHT22;42923;53.220;6.528;2023-09-19T00:20:03;13.40;99.90
52965;DHT22;42923;53.220;6.528;2023-09-19T00:22:40;13.40;99.90
52965;DHT22;42923;53.220;6.528;2023-09-19T00:25:06;13.40;99.90
52965;DHT22;42923;53.220;6.528;2023-09-19T00:27:31;13.50;99.90
52965;DHT22;42923;53.220;6.528;2023-09-19T00:29:59;13.50;99.90
52965;DHT22;42923;53.220;6.528;2023-09-19T00:32:25;13.50;99.90
52965;DHT22;42923;53.220;6.528;2023-09-19T00:34:57;13.50;99.90
52965;DHT22;42923;53.220;6.528;2023-09-19T00:37:23;13.60;99.90
52965;DHT22;42923;53.220;6.528;2023-09-19T00:39:49;13.50;99.90
52965;DHT22;42923;53.220;6.528;2023-09-19T00:42:19;13.50;99.90
52965;DHT22;42923;53.220;6.528;2023-09-19T00:44:47;13.50;99.90
52965;DHT22;42923;53.220;6.528;2023-09-19T00:47:13;13.40;99.90
52965;DHT22;42923;53.220;6.528;2023-09-19T00:49:47;13.40;99.90
52965;DHT22;42923;53.220;6.528;2023-09-19T00:52:18;13.40;99.90
52965;DHT22;42923;53.220;6.528;2023-09-19T00:54:48;13.40;99.90
52965;DHT22;42923;53.220;6.528;2023-09-19T00:57:14;13.40;99.90
52965;DHT22;42923;53.220;6.528;2023-09-19T00:59:41;13.30;99.90
52965;DHT22;42923;53.220;6.528;2023-09-19T01:02:08;13.40;99.90
52965;DHT22;42923;53.220;6.528;2023-09-19T01:04:34;13.30;99.90
52965;DHT22;42923;53.220;6.528;2023-09-19T01:06:59;13.30;99.90
52965;DHT22;42923;53.220;6.528;2023-09-19T01:09:25;13.20;99.90
52965;DHT22;42923;53.220;6.528;2023-09-19T01:11:58;13.20;99.90
52965;DHT22;42923;53.220;6.528;2023-09-19T01:14:46;13.10;99.90
52965;DHT22;42923;53.220;6.528;2023-09-19T01:17:29;13.00;99.90
52965;DHT22;42923;53.220;6.528;2023-09-19T01:31:10;12.80;99.90
52965;DHT22;42923;53.220;6.528;2023-09-19T01:33:54;12.80;99.90
52965;DHT22;42923;53.220;6.528;2023-09-19T01:36:25;12.80;99.90
52965;DHT22;42923;53.220;6.528;2023-09-19T01:38:52;12.80;99.90
52965;DHT22;42923;53.220;6.528;2023-09-19T01:41:38;12.80;99.90
52965;DHT22;42923;53.220;6.528;2023-09-19T01:44:09;12.80;99.90
52965;DHT22;42923;53.220;6.528;2023-09-19T01:46:40;12.70;99.90
52965;DHT22;42923;53.220;6.528;2023-09-19T01:49:43;12.70;99.90
52965;DHT22;42923;53.220;6.528;2023-09-19T01:52:12;12.60;99.90
52965;DHT22;42923;53.220;6.528;2023-09-19T01:54:53;12.60;99.90
52965;DHT22;42923;53.220;6.528;2023-09-19T01:57:51;12.60;99.90
52965;DHT22;42923;53.220;6.528;2023-09-19T02:00:21;12.60;99.90
52965;DHT22;42923;53.220;6.528;2023-09-19T02:02:49;12.50;99.90
52965;DHT22;42923;53.220;6.528;2023-09-19T02:05:25;12.50;99.90
52965;DHT22;42923;53.220;6.528;2023-09-19T02:07:52;12.50;99.90
52965;DHT22;42923;53.220;6.528;2023-09-19T02:10:19;12.50;99.90
52965;DHT22;42923;53.220;6.528;2023-09-19T02:12:45;12.50;99.90
52965;DHT22;42923;53.220;6.528;2023-09-19T02:15:13;12.50;99.90
52965;DHT22;42923;53.220;6.528;2023-09-19T02:17:42;12.40;99.90
52965;DHT22;42923;53.220;6.528;2023-09-19T02:20:10;12.40;99.90
52965;DHT22;42923;53.220;6.528;2023-09-19T02:22:36;12.40;99.90
52965;DHT22;42923;53.220;6.528;2023-09-19T02:25:03;12.40;99.90
52965;DHT22;42923;53.220;6.528;2023-09-19T02:27:29;12.30;99.90
52965;DHT22;42923;53.220;6.528;2023-09-19T02:29:57;12.30;99.90
52965;DHT22;42923;53.220;6.528;2023-09-19T02:32:23;12.30;99.90
52965;DHT22;42923;53.220;6.528;2023-09-19T02:34:49;12.20;99.90
52965;DHT22;42923;53.220;6.528;2023-09-19T02:37:17;12.20;99.90
52965;DHT22;42923;53.220;6.528;2023-09-19T02:39:45;12.10;99.90
52965;DHT22;42923;53.220;6.528;2023-09-19T02:42:11;12.10;99.90
52965;DHT22;42923;53.220;6.528;2023-09-19T02:44:37;12.10;99.90
52965;DHT22;42923;53.220;6.528;2023-09-19T02:47:04;12.00;99.90
52965;DHT22;42923;53.220;6.528;2023-09-19T02:49:30;11.90;99.90
52965;DHT22;42923;53.220;6.528;2023-09-19T02:51:55;11.90;99.90
52965;DHT22;42923;53.220;6.528;2023-09-19T02:54:21;11.90;99.90
52965;DHT22;42923;53.220;6.528;2023-09-19T02:56:47;11.90;99.90
52965;DHT22;42923;53.220;6.528;2023-09-19T02:59:13;11.80;99.90
52965;DHT22;42923;53.220;6.528;2023-09-19T03:01:43;11.90;99.90
52965;DHT22;42923;53.220;6.528;2023-09-19T03:04:09;11.90;99.90
52965;DHT22;42923;53.220;6.528;2023-09-19T03:06:37;11.90;99.90
52965;DHT22;42923;53.220;6.528;2023-09-19T03:09:04;12.00;99.90
52965;DHT22;42923;53.220;6.528;2023-09-19T03:11:39;12.00;99.90
52965;DHT22;42923;53.220;6.528;2023-09-19T03:14:06;12.00;99.90
52965;DHT22;42923;53.220;6.528;2023-09-19T03:16:32;12.00;99.90
52965;DHT22;42923;53.220;6.528;2023-09-19T03:18:59;12.00;99.90
52965;DHT22;42923;53.220;6.528;2023-09-19T03:21:28;12.00;99.90
52965;DHT22;42923;53.220;6.528;2023-09-19T03:23:55;12.00;99.90
52965;DHT22;42923;53.220;6.528;2023-09-19T03:26:21;12.00;99.90
52965;DHT22;42923;53.220;6.528;2023-09-19T03:28:47;12.10;99.90
52965;DHT22;42923;53.220;6.528;2023-09-19T03:31:13;12.00;99.90
52965;DHT22;42923;53.220;6.528;2023-09-19T03:33:39;12.10;99.90
52965;DHT22;42923;53.220;6.528;2023-09-19T03:36:05;12.00;99.90
52965;DHT22;42923;53.220;6.528;2023-09-19T03:38:32;12.00;99.90
52965;DHT22;42923;53.220;6.528;2023-09-19T03:41:00;12.00;99.90
52965;DHT22;42923;53.220;6.528;2023-09-19T03:43:26;12.00;99.90
52965;DHT22;42923;53.220;6.528;2023-09-19T03:45:53;12.20;99.90
52965;DHT22;42923;53.220;6.528;2023-09-19T03:48:21;12.00;99.90
52965;DHT22;42923;53.220;6.528;2023-09-19T03:50:47;12.00;99.90
52965;DHT22;42923;53.220;6.528;2023-09-19T03:53:13;12.00;99.90
52965;DHT22;42923;53.220;6.528;2023-09-19T03:55:40;12.00;99.90
52965;DHT22;42923;53.220;6.528;2023-09-19T03:58:06;12.00;99.90
52965;DHT22;42923;53.220;6.528;2023-09-19T04:00:32;12.00;99.90
52965;DHT22;42923;53.220;6.528;2023-09-19T04:02:58;12.10;99.90
52965;DHT22;42923;53.220;6.528;2023-09-19T04:05:26;12.10;99.90
52965;DHT22;42923;53.220;6.528;2023-09-19T04:07:52;12.10;99.90
52965;DHT22;42923;53.220;6.528;2023-09-19T04:10:19;12.20;99.90
52965;DHT22;42923;53.220;6.528;2023-09-19T04:12:53;12.20;99.90
52965;DHT22;42923;53.220;6.528;2023-09-19T04:15:19;12.30;99.90
52965;DHT22;42923;53.220;6.528;2023-09-19T04:17:45;12.40;99.90
52965;DHT22;42923;53.220;6.528;2023-09-19T04:20:11;12.40;99.90
52965;DHT22;42923;53.220;6.528;2023-09-19T04:22:38;12.40;99.90
52965;DHT22;42923;53.220;6.528;2023-09-19T04:25:05;12.40;99.90
52965;DHT22;42923;53.220;6.528;2023-09-19T04:27:33;12.40;99.90
52965;DHT22;42923;53.220;6.528;2023-09-19T04:29:58;12.50;99.90
52965;DHT22;42923;53.220;6.528;2023-09-19T04:32:28;12.40;99.90
52965;DHT22;42923;53.220;6.528;2023-09-19T04:34:55;12.50;99.90
52965;DHT22;42923;53.220;6.528;2023-09-19T04:37:25;12.50;99.90
52965;DHT22;42923;53.220;6.528;2023-09-19T04:39:51;12.50;99.90
52965;DHT22;42923;53.220;6.528;2023-09-19T04:42:17;12.50;99.90
52965;DHT22;42923;53.220;6.528;2023-09-19T04:44:43;12.60;99.90
52965;DHT22;42923;53.220;6.528;2023-09-19T04:47:09;12.60;99.90
52965;DHT22;42923;53.220;6.528;2023-09-19T04:49:34;12.60;99.90
52965;DHT22;42923;53.220;6.528;2023-09-19T04:52:00;12.60;99.90
52965;DHT22;42923;53.220;6.528;2023-09-19T04:54:26;12.50;99.90
52965;DHT22;42923;53.220;6.528;2023-09-19T04:56:52;12.60;99.90
52965;DHT22;42923;53.220;6.528;2023-09-19T04:59:18;12.60;99.90
52965;DHT22;42923;53.220;6.528;2023-09-19T05:01:44;12.60;99.90
52965;DHT22;42923;53.220;6.528;2023-09-19T05:04:09;12.60;99.90
52965;DHT22;42923;53.220;6.528;2023-09-19T05:06:35;12.60;99.90
52965;DHT22;42923;53.220;6.528;2023-09-19T05:09:01;12.60;99.90
52965;DHT22;42923;53.220;6.528;2023-09-19T05:11:27;12.60;99.90
52965;DHT22;42923;53.220;6.528;2023-09-19T05:13:55;12.60;99.90
52965;DHT22;42923;53.220;6.528;2023-09-19T05:16:21;12.70;99.90
52965;DHT22;42923;53.220;6.528;2023-09-19T05:18:47;12.70;99.90
52965;DHT22;42923;53.220;6.528;2023-09-19T05:21:13;12.70;99.90
52965;DHT22;42923;53.220;6.528;2023-09-19T05:23:38;12.70;99.90
52965;DHT22;42923;53.220;6.528;2023-09-19T05:26:04;12.80;99.90
52965;DHT22;42923;53.220;6.528;2023-09-19T05:28:30;12.80;99.90
52965;DHT22;42923;53.220;6.528;2023-09-19T05:31:00;12.80;99.90
52965;DHT22;42923;53.220;6.528;2023-09-19T05:33:27;12.90;99.90
52965;DHT22;42923;53.220;6.528;2023-09-19T05:35:53;12.90;99.90
52965;DHT22;42923;53.220;6.528;2023-09-19T05:38:19;12.90;99.90
52965;DHT22;42923;53.220;6.528;2023-09-19T05:40:46;12.90;99.90
52965;DHT22;42923;53.220;6.528;2023-09-19T05:43:12;12.90;99.90
52965;DHT22;42923;53.220;6.528;2023-09-19T05:45:40;12.90;99.90
52965;DHT22;42923;53.220;6.528;2023-09-19T05:48:13;13.00;99.90
52965;DHT22;42923;53.220;6.528;2023-09-19T05:50:41;13.00;99.90
52965;DHT22;42923;53.220;6.528;2023-09-19T05:53:08;13.00;99.90
52965;DHT22;42923;53.220;6.528;2023-09-19T05:55:34;13.00;99.90
52965;DHT22;42923;53.220;6.528;2023-09-19T05:58:01;13.00;99.90
52965;DHT22;42923;53.220;6.528;2023-09-19T06:00:29;13.10;99.90
52965;DHT22;42923;53.220;6.528;2023-09-19T06:02:56;13.10;99.90
52965;DHT22;42923;53.220;6.528;2023-09-19T06:05:23;13.10;99.90
52965;DHT22;42923;53.220;6.528;2023-09-19T06:07:49;13.20;99.90
52965;DHT22;42923;53.220;6.528;2023-09-19T06:10:16;13.20;99.90
52965;DHT22;42923;53.220;6.528;2023-09-19T06:12:43;13.30;99.90
52965;DHT22;42923;53.220;6.528;2023-09-19T06:15:15;13.30;99.90
52965;DHT22;42923;53.220;6.528;2023-09-19T06:17:52;13.40;99.90
52965;DHT22;42923;53.220;6.528;2023-09-19T06:20:21;13.40;99.90
52965;DHT22;42923;53.220;6.528;2023-09-19T06:22:48;13.50;99.90
52965;DHT22;42923;53.220;6.528;2023-09-19T06:25:15;13.50;99.90
52965;DHT22;42923;53.220;6.528;2023-09-19T06:27:51;13.60;99.90
52965;DHT22;42923;53.220;6.528;2023-09-19T06:30:22;13.60;99.90
52965;DHT22;42923;53.220;6.528;2023-09-19T06:32:49;13.70;99.90
52965;DHT22;42923;53.220;6.528;2023-09-19T06:35:20;13.80;99.90
52965;DHT22;42923;53.220;6.528;2023-09-19T06:37:47;13.80;99.90
52965;DHT22;42923;53.220;6.528;2023-09-19T06:40:14;13.80;99.90
52965;DHT22;42923;53.220;6.528;2023-09-19T06:42:47;13.90;99.90
52965;DHT22;42923;53.220;6.528;2023-09-19T06:45:15;13.90;99.90
52965;DHT22;42923;53.220;6.528;2023-09-19T06:47:50;14.00;99.90
52965;DHT22;42923;53.220;6.528;2023-09-19T06:50:17;14.00;99.90
52965;DHT22;42923;53.220;6.528;2023-09-19T06:52:44;14.10;99.90
52965;DHT22;42923;53.220;6.528;2023-09-19T06:55:11;14.20;99.90
52965;DHT22;42923;53.220;6.528;2023-09-19T06:57:39;14.20;99.90
52965;DHT22;42923;53.220;6.528;2023-09-19T07:00:09;14.30;99.90
52965;DHT22;42923;53.220;6.528;2023-09-19T07:02:41;14.40;99.90
52965;DHT22;42923;53.220;6.528;2023-09-19T07:05:08;14.50;99.90
52965;DHT22;42923;53.220;6.528;2023-09-19T07:07:33;14.60;99.90
52965;DHT22;42923;53.220;6.528;2023-09-19T07:10:03;14.70;99.90
52965;DHT22;42923;53.220;6.528;2023-09-19T07:12:33;14.70;99.90
52965;DHT22;42923;53.220;6.528;2023-09-19T07:14:59;14.80;99.90
52965;DHT22;42923;53.220;6.528;2023-09-19T07:17:25;14.90;99.90
52965;DHT22;42923;53.220;6.528;2023-09-19T07:19:51;14.90;99.90
52965;DHT22;42923;53.220;6.528;2023-09-19T07:22:17;15.00;99.90
52965;DHT22;42923;53.220;6.528;2023-09-19T07:24:42;15.10;99.90
52965;DHT22;42923;53.220;6.528;2023-09-19T07:27:08;15.10;99.90
52965;DHT22;42923;53.220;6.528;2023-09-19T07:29:34;15.20;99.90
52965;DHT22;42923;53.220;6.528;2023-09-19T07:32:00;15.20;99.90
52965;DHT22;42923;53.220;6.528;2023-09-19T07:34:25;15.20;99.90
52965;DHT22;42923;53.220;6.528;2023-09-19T07:36:51;15.20;99.90
52965;DHT22;42923;53.220;6.528;2023-09-19T07:39:17;15.20;99.90
52965;DHT22;42923;53.220;6.528;2023-09-19T07:41:43;15.10;99.90
52965;DHT22;42923;53.220;6.528;2023-09-19T07:44:08;15.10;99.90
52965;DHT22;42923;53.220;6.528;2023-09-19T07:46:35;15.20;99.90
52965;DHT22;42923;53.220;6.528;2023-09-19T07:49:01;15.30;99.90
52965;DHT22;42923;53.220;6.528;2023-09-19T07:51:27;15.30;99.90
52965;DHT22;42923;53.220;6.528;2023-09-19T07:53:53;15.40;99.90
52965;DHT22;42923;53.220;6.528;2023-09-19T07:56:20;15.40;99.90
52965;DHT22;42923;53.220;6.528;2023-09-19T07:58:46;15.40;99.90
52965;DHT22;42923;53.220;6.528;2023-09-19T08:01:12;15.50;99.90
52965;DHT22;42923;53.220;6.528;2023-09-19T08:03:39;15.50;99.90
52965;DHT22;42923;53.220;6.528;2023-09-19T08:06:09;15.40;99.90
52965;DHT22;42923;53.220;6.528;2023-09-19T08:08:36;15.40;99.90
52965;DHT22;42923;53.220;6.528;2023-09-19T08:11:05;15.40;99.90
52965;DHT22;42923;53.220;6.528;2023-09-19T08:13:39;15.50;99.90
52965;DHT22;42923;53.220;6.528;2023-09-19T08:16:12;15.60;99.90
52965;DHT22;42923;53.220;6.528;2023-09-19T08:18:38;15.90;99.90
52965;DHT22;42923;53.220;6.528;2023-09-19T08:21:06;16.10;99.90
52965;DHT22;42923;53.220;6.528;2023-09-19T08:23:37;16.20;99.90
52965;DHT22;42923;53.220;6.528;2023-09-19T08:26:04;16.30;99.90
52965;DHT22;42923;53.220;6.528;2023-09-19T08:28:34;16.30;99.90
52965;DHT22;42923;53.220;6.528;2023-09-19T08:31:03;16.30;99.90
52965;DHT22;42923;53.220;6.528;2023-09-19T08:33:35;16.30;99.90
52965;DHT22;42923;53.220;6.528;2023-09-19T08:36:04;16.40;99.90
52965;DHT22;42923;53.220;6.528;2023-09-19T08:38:34;16.40;99.90
52965;DHT22;42923;53.220;6.528;2023-09-19T08:41:00;16.40;99.90
52965;DHT22;42923;53.220;6.528;2023-09-19T08:43:27;16.40;99.90
52965;DHT22;42923;53.220;6.528;2023-09-19T08:48:32;16.50;99.90
52965;DHT22;42923;53.220;6.528;2023-09-19T08:51:12;16.60;99.90
52965;DHT22;42923;53.220;6.528;2023-09-19T08:53:50;16.70;99.90
52965;DHT22;42923;53.220;6.528;2023-09-19T08:56:17;16.80;99.90
52965;DHT22;42923;53.220;6.528;2023-09-19T08:58:59;16.90;99.90
52965;DHT22;42923;53.220;6.528;2023-09-19T09:01:28;16.90;99.90
52965;DHT22;42923;53.220;6.528;2023-09-19T09:03:55;16.90;99.90
52965;DHT22;42923;53.220;6.528;2023-09-19T09:06:22;16.90;99.90
52965;DHT22;42923;53.220;6.528;2023-09-19T09:08:50;17.00;99.90
52965;DHT22;42923;53.220;6.528;2023-09-19T09:11:16;17.00;99.90
52965;DHT22;42923;53.220;6.528;2023-09-19T09:13:44;17.10;99.90
52965;DHT22;42923;53.220;6.528;2023-09-19T09:16:10;17.10;99.90
52965;DHT22;42923;53.220;6.528;2023-09-19T09:18:38;17.20;99.90
52965;DHT22;42923;53.220;6.528;2023-09-19T09:21:04;17.20;99.90
52965;DHT22;42923;53.220;6.528;2023-09-19T09:23:30;17.20;99.90
52965;DHT22;42923;53.220;6.528;2023-09-19T09:25:58;17.30;99.90
52965;DHT22;42923;53.220;6.528;2023-09-19T09:28:30;17.30;99.90
52965;DHT22;42923;53.220;6.528;2023-09-19T09:30:57;17.30;99.90
52965;DHT22;42923;53.220;6.528;2023-09-19T09:33:54;17.30;99.90
52965;DHT22;42923;53.220;6.528;2023-09-19T09:36:37;17.20;99.90
52965;DHT22;42923;53.220;6.528;2023-09-19T09:39:03;17.20;99.90
52965;DHT22;42923;53.220;6.528;2023-09-19T09:41:42;17.20;99.90
52965;DHT22;42923;53.220;6.528;2023-09-19T09:44:18;17.30;99.90
52965;DHT22;42923;53.220;6.528;2023-09-19T09:46:48;17.40;99.90
52965;DHT22;42923;53.220;6.528;2023-09-19T09:49:27;17.50;99.90
52965;DHT22;42923;53.220;6.528;2023-09-19T09:52:06;17.60;99.90
52965;DHT22;42923;53.220;6.528;2023-09-19T09:54:34;17.70;99.90
52965;DHT22;42923;53.220;6.528;2023-09-19T09:57:08;17.70;99.90
52965;DHT22;42923;53.220;6.528;2023-09-19T09:59:53;17.70;99.90
52965;DHT22;42923;53.220;6.528;2023-09-19T10:02:35;17.80;99.90
52965;DHT22;42923;53.220;6.528;2023-09-19T10:05:18;18.00;99.90
52965;DHT22;42923;53.220;6.528;2023-09-19T10:07:54;18.30;99.90
52965;DHT22;42923;53.220;6.528;2023-09-19T10:10:38;18.50;99.90
52965;DHT22;42923;53.220;6.528;2023-09-19T10:13:19;18.60;99.90
52965;DHT22;42923;53.220;6.528;2023-09-19T10:15:49;18.80;99.90
52965;DHT22;42923;53.220;6.528;2023-09-19T10:18:25;18.90;99.90
52965;DHT22;42923;53.220;6.528;2023-09-19T10:20:51;19.10;99.90
52965;DHT22;42923;53.220;6.528;2023-09-19T10:23:20;19.20;99.90
52965;DHT22;42923;53.220;6.528;2023-09-19T10:25:50;19.40;99.90
52965;DHT22;42923;53.220;6.528;2023-09-19T10:28:17;19.50;99.90
52965;DHT22;42923;53.220;6.528;2023-09-19T10:30:51;19.60;99.90
52965;DHT22;42923;53.220;6.528;2023-09-19T10:33:18;19.60;99.90
52965;DHT22;42923;53.220;6.528;2023-09-19T10:35:49;19.50;99.90
52965;DHT22;42923;53.220;6.528;2023-09-19T10:38:24;19.60;99.90
52965;DHT22;42923;53.220;6.528;2023-09-19T10:40:52;19.70;99.90
52965;DHT22;42923;53.220;6.528;2023-09-19T10:43:19;19.80;99.90
52965;DHT22;42923;53.220;6.528;2023-09-19T10:45:47;19.90;99.90
52965;DHT22;42923;53.220;6.528;2023-09-19T10:48:19;19.90;99.90
52965;DHT22;42923;53.220;6.528;2023-09-19T10:53:16;19.70;99.90
52965;DHT22;42923;53.220;6.528;2023-09-19T10:55:56;19.60;99.90
52965;DHT22;42923;53.220;6.528;2023-09-19T10:58:31;19.40;99.90
52965;DHT22;42923;53.220;6.528;2023-09-19T11:01:02;19.10;99.90
52965;DHT22;42923;53.220;6.528;2023-09-19T11:03:31;19.00;99.90
52965;DHT22;42923;53.220;6.528;2023-09-19T11:06:03;19.10;99.90
52965;DHT22;42923;53.220;6.528;2023-09-19T11:09:03;19.20;99.90
52965;DHT22;42923;53.220;6.528;2023-09-19T11:11:39;19.20;99.90
52965;DHT22;42923;53.220;6.528;2023-09-19T11:30:34;19.00;99.90
52965;DHT22;42923;53.220;6.528;2023-09-19T11:43:52;19.70;99.90
52965;DHT22;42923;53.220;6.528;2023-09-19T11:46:21;19.80;99.90
52965;DHT22;42923;53.220;6.528;2023-09-19T11:48:51;19.70;99.90
52965;DHT22;42923;53.220;6.528;2023-09-19T11:51:18;19.70;99.90
52965;DHT22;42923;53.220;6.528;2023-09-19T11:53:54;19.70;99.90
52965;DHT22;42923;53.220;6.528;2023-09-19T11:56:22;19.70;99.90
52965;DHT22;42923;53.220;6.528;2023-09-19T11:58:54;19.70;99.90
52965;DHT22;42923;53.220;6.528;2023-09-19T12:03:57;19.60;99.90
52965;DHT22;42923;53.220;6.528;2023-09-19T12:06:24;19.40;99.90
52965;DHT22;42923;53.220;6.528;2023-09-19T12:08:51;19.10;99.90
52965;DHT22;42923;53.220;6.528;2023-09-19T12:11:21;18.90;99.90
52965;DHT22;42923;53.220;6.528;2023-09-19T12:13:47;18.70;99.90
52965;DHT22;42923;53.220;6.528;2023-09-19T12:16:18;18.60;99.90
52965;DHT22;42923;53.220;6.528;2023-09-19T12:18:48;18.50;99.90
52965;DHT22;42923;53.220;6.528;2023-09-19T12:21:42;18.50;99.90
52965;DHT22;42923;53.220;6.528;2023-09-19T12:24:16;18.50;99.90
52965;DHT22;42923;53.220;6.528;2023-09-19T12:26:46;18.40;99.90
52965;DHT22;42923;53.220;6.528;2023-09-19T12:29:21;18.30;99.90
52965;DHT22;42923;53.220;6.528;2023-09-19T12:31:55;18.20;99.90
52965;DHT22;42923;53.220;6.528;2023-09-19T12:34:27;18.20;99.90
52965;DHT22;42923;53.220;6.528;2023-09-19T12:37:13;18.10;99.90
52965;DHT22;42923;53.220;6.528;2023-09-19T12:39:50;17.80;99.90
52965;DHT22;42923;53.220;6.528;2023-09-19T12:42:25;17.70;99.90
52965;DHT22;42923;53.220;6.528;2023-09-19T12:44:57;17.60;99.90
52965;DHT22;42923;53.220;6.528;2023-09-19T12:47:25;17.70;99.90
52965;DHT22;42923;53.220;6.528;2023-09-19T12:50:17;17.80;99.90
52965;DHT22;42923;53.220;6.528;2023-09-19T12:52:55;18.00;99.90
52965;DHT22;42923;53.220;6.528;2023-09-19T12:55:30;18.10;99.90
52965;DHT22;42923;53.220;6.528;2023-09-19T12:58:18;18.20;99.90
52965;DHT22;42923;53.220;6.528;2023-09-19T13:00:45;18.30;99.90
52965;DHT22;42923;53.220;6.528;2023-09-19T13:06:07;18.40;99.90
52965;DHT22;42923;53.220;6.528;2023-09-19T13:08:37;18.30;99.90
52965;DHT22;42923;53.220;6.528;2023-09-19T13:11:15;18.20;99.90
52965;DHT22;42923;53.220;6.528;2023-09-19T13:14:12;18.20;99.90
52965;DHT22;42923;53.220;6.528;2023-09-19T13:19:43;18.20;99.90
52965;DHT22;42923;53.220;6.528;2023-09-19T13:25:16;18.10;99.90
52965;DHT22;42923;53.220;6.528;2023-09-19T13:27:48;18.10;99.90
52965;DHT22;42923;53.220;6.528;2023-09-19T13:30:17;17.80;99.90
52965;DHT22;42923;53.220;6.528;2023-09-19T13:32:43;17.70;99.90
52965;DHT22;42923;53.220;6.528;2023-09-19T13:35:09;17.50;99.90
52965;DHT22;42923;53.220;6.528;2023-09-19T13:37:37;17.30;99.90
52965;DHT22;42923;53.220;6.528;2023-09-19T13:40:10;17.30;99.90
52965;DHT22;42923;53.220;6.528;2023-09-19T13:42:37;17.20;99.90
52965;DHT22;42923;53.220;6.528;2023-09-19T13:45:04;17.20;99.90
52965;DHT22;42923;53.220;6.528;2023-09-19T13:47:30;17.30;99.90
52965;DHT22;42923;53.220;6.528;2023-09-19T13:49:56;17.40;99.90
52965;DHT22;42923;53.220;6.528;2023-09-19T13:52:22;17.50;99.90
52965;DHT22;42923;53.220;6.528;2023-09-19T13:54:51;17.60;99.90
52965;DHT22;42923;53.220;6.528;2023-09-19T13:57:18;17.80;99.90
52965;DHT22;42923;53.220;6.528;2023-09-19T13:59:44;18.00;99.90
52965;DHT22;42923;53.220;6.528;2023-09-19T14:02:10;18.10;99.90
52965;DHT22;42923;53.220;6.528;2023-09-19T14:04:35;18.30;99.90
52965;DHT22;42923;53.220;6.528;2023-09-19T14:07:01;18.40;99.90
52965;DHT22;42923;53.220;6.528;2023-09-19T14:09:27;18.40;99.90
52965;DHT22;42923;53.220;6.528;2023-09-19T14:11:53;18.40;99.90
52965;DHT22;42923;53.220;6.528;2023-09-19T14:14:19;18.30;99.90
52965;DHT22;42923;53.220;6.528;2023-09-19T14:16:47;18.30;99.90
52965;DHT22;42923;53.220;6.528;2023-09-19T14:19:13;18.40;99.90
52965;DHT22;42923;53.220;6.528;2023-09-19T14:21:40;18.50;99.90
52965;DHT22;42923;53.220;6.528;2023-09-19T14:24:06;18.50;99.90
52965;DHT22;42923;53.220;6.528;2023-09-19T14:26:35;18.50;99.90
52965;DHT22;42923;53.220;6.528;2023-09-19T14:29:02;18.50;99.90
52965;DHT22;42923;53.220;6.528;2023-09-19T14:31:28;18.50;99.90
52965;DHT22;42923;53.220;6.528;2023-09-19T14:33:54;18.60;99.90
52965;DHT22;42923;53.220;6.528;2023-09-19T14:36:25;18.70;99.90
52965;DHT22;42923;53.220;6.528;2023-09-19T14:38:55;18.70;99.90
52965;DHT22;42923;53.220;6.528;2023-09-19T14:41:21;18.60;99.90
52965;DHT22;42923;53.220;6.528;2023-09-19T14:43:49;18.60;99.90
52965;DHT22;42923;53.220;6.528;2023-09-19T14:46:14;18.60;99.90
52965;DHT22;42923;53.220;6.528;2023-09-19T14:48:41;18.50;99.90
52965;DHT22;42923;53.220;6.528;2023-09-19T14:51:08;18.50;99.90
52965;DHT22;42923;53.220;6.528;2023-09-19T14:53:37;18.50;99.90
52965;DHT22;42923;53.220;6.528;2023-09-19T14:56:04;18.40;99.90
52965;DHT22;42923;53.220;6.528;2023-09-19T14:58:31;18.20;99.90
52965;DHT22;42923;53.220;6.528;2023-09-19T15:01:11;18.10;99.90
52965;DHT22;42923;53.220;6.528;2023-09-19T15:03:37;18.00;99.90
52965;DHT22;42923;53.220;6.528;2023-09-19T15:06:10;17.90;99.90
52965;DHT22;42923;53.220;6.528;2023-09-19T15:08:38;17.90;99.90
52965;DHT22;42923;53.220;6.528;2023-09-19T15:11:04;17.80;99.90
52965;DHT22;42923;53.220;6.528;2023-09-19T15:13:31;17.70;99.90
52965;DHT22;42923;53.220;6.528;2023-09-19T15:16:01;17.70;99.90
52965;DHT22;42923;53.220;6.528;2023-09-19T15:18:28;17.60;99.90
52965;DHT22;42923;53.220;6.528;2023-09-19T15:20:56;17.60;99.90
52965;DHT22;42923;53.220;6.528;2023-09-19T15:23:22;17.60;99.90
52965;DHT22;42923;53.220;6.528;2023-09-19T15:25:49;17.50;99.90
52965;DHT22;42923;53.220;6.528;2023-09-19T15:28:15;17.50;99.90
52965;DHT22;42923;53.220;6.528;2023-09-19T15:30:41;17.50;99.90
52965;DHT22;42923;53.220;6.528;2023-09-19T15:33:06;17.40;99.90
52965;DHT22;42923;53.220;6.528;2023-09-19T15:35:32;17.30;99.90
52965;DHT22;42923;53.220;6.528;2023-09-19T15:37:58;17.30;99.90
52965;DHT22;42923;53.220;6.528;2023-09-19T15:40:26;17.10;99.90
52965;DHT22;42923;53.220;6.528;2023-09-19T15:42:54;17.00;99.90
52965;DHT22;42923;53.220;6.528;2023-09-19T15:45:22;16.90;99.90
52965;DHT22;42923;53.220;6.528;2023-09-19T15:47:48;16.80;99.90
52965;DHT22;42923;53.220;6.528;2023-09-19T15:50:14;16.70;99.90
52965;DHT22;42923;53.220;6.528;2023-09-19T15:52:41;16.60;99.90
52965;DHT22;42923;53.220;6.528;2023-09-19T15:55:07;16.60;99.90
52965;DHT22;42923;53.220;6.528;2023-09-19T15:57:37;16.50;99.90
52965;DHT22;42923;53.220;6.528;2023-09-19T16:00:05;16.60;99.90
52965;DHT22;42923;53.220;6.528;2023-09-19T16:02:37;16.60;99.90
52965;DHT22;42923;53.220;6.528;2023-09-19T16:05:03;16.60;99.90
52965;DHT22;42923;53.220;6.528;2023-09-19T16:07:32;16.60;99.90
52965;DHT22;42923;53.220;6.528;2023-09-19T16:09:59;16.70;99.90
52965;DHT22;42923;53.220;6.528;2023-09-19T16:12:25;16.70;99.90
52965;DHT22;42923;53.220;6.528;2023-09-19T16:14:51;16.70;99.90
52965;DHT22;42923;53.220;6.528;2023-09-19T16:17:17;16.80;99.90
52965;DHT22;42923;53.220;6.528;2023-09-19T16:19:43;16.80;99.90
52965;DHT22;42923;53.220;6.528;2023-09-19T16:22:10;16.90;99.90
52965;DHT22;42923;53.220;6.528;2023-09-19T16:24:35;16.80;99.90
52965;DHT22;42923;53.220;6.528;2023-09-19T16:27:01;16.80;99.90
52965;DHT22;42923;53.220;6.528;2023-09-19T16:29:27;16.80;99.90
52965;DHT22;42923;53.220;6.528;2023-09-19T16:31:53;16.80;99.90
52965;DHT22;42923;53.220;6.528;2023-09-19T16:34:19;16.80;99.90
52965;DHT22;42923;53.220;6.528;2023-09-19T16:36:44;16.80;99.90